Time;durP1;ratioP1;P1;durP2;ratioP2;P2;SDS_P1;SDS_P2;PMS_P1;PMS_P2;Temp;Humidity;BMP_temperature;BMP_pressure;BME280_temperature;BME280_humidity;BME280_pressure;Samples;Min_cycle;Max_cycle;Signal;HPM_P1;HPM_P2
2023/09/06 00:01:54;;;;;;;19.58;12.05;;;;;;;14.63;100.00;101111.25;5114105;28;20027;-84
2023/09/06 00:04:19;;;;;;;16.58;11.77;;;;;;;14.51;100.00;101095.91;5114154;28;20027;-84
2023/09/06 00:06:45;;;;;;;20.75;12.55;;;;;;;14.56;100.00;101108.78;5113003;28;20047;-85
2023/09/06 00:09:10;;;;;;;22.38;12.52;;;;;;;14.55;100.00;101138.81;5114047;28;20028;-85
2023/09/06 00:11:36;;;;;;;19.63;12.95;;;;;;;14.52;100.00;101134.88;5112939;28;20110;-84
2023/09/06 00:14:03;;;;;;;19.00;13.32;;;;;;;14.35;100.00;101110.81;5112915;28;20031;-84
2023/09/06 00:16:28;;;;;;;22.58;12.02;;;;;;;14.49;100.00;101138.72;5112681;28;20023;-83
2023/09/06 00:18:56;;;;;;;21.48;12.18;;;;;;;14.46;100.00;101127.44;5113856;28;20476;-83
2023/09/06 00:21:23;;;;;;;21.02;12.65;;;;;;;14.41;100.00;101121.13;5112706;28;20560;-83
2023/09/06 00:23:49;;;;;;;20.75;11.98;;;;;;;14.41;100.00;101124.00;5114110;28;20031;-83
2023/09/06 00:26:14;;;;;;;16.00;11.73;;;;;;;14.30;100.00;101111.53;5113783;28;20096;-83
2023/09/06 00:28:40;;;;;;;15.52;11.52;;;;;;;14.35;100.00;101126.00;5114055;28;20063;-83
2023/09/06 00:31:05;;;;;;;16.88;11.85;;;;;;;14.34;100.00;101135.91;5113904;28;20037;-84
2023/09/06 00:33:33;;;;;;;16.27;11.80;;;;;;;14.37;100.00;101134.13;5114010;28;20035;-83
2023/09/06 00:36:00;;;;;;;18.42;11.57;;;;;;;14.35;100.00;101136.69;5113843;28;20483;-84
2023/09/06 00:38:25;;;;;;;17.38;12.27;;;;;;;14.34;100.00;101129.34;5120364;28;20402;-83
2023/09/06 00:40:51;;;;;;;23.40;12.95;;;;;;;14.31;100.00;101131.16;5120853;28;20063;-82
2023/09/06 00:43:17;;;;;;;18.20;12.77;;;;;;;14.33;100.00;101133.53;5123132;28;20047;-83
2023/09/06 00:45:44;;;;;;;24.33;13.68;;;;;;;14.26;100.00;101123.25;5118300;28;20543;-83
2023/09/06 00:48:15;;;;;;;18.95;12.65;;;;;;;14.26;100.00;101116.69;5112569;28;20034;-83
2023/09/06 00:50:42;;;;;;;20.48;12.10;;;;;;;14.19;100.00;101119.97;5113827;28;20168;-83
2023/09/06 00:53:08;;;;;;;18.92;12.00;;;;;;;14.20;100.00;101124.44;5112587;28;20035;-85
2023/09/06 00:55:37;;;;;;;19.25;12.40;;;;;;;14.21;100.00;101131.78;5112710;28;20035;-84
2023/09/06 00:58:05;;;;;;;20.15;12.90;;;;;;;14.25;100.00;101130.28;5113609;28;20019;-84
2023/09/06 01:00:32;;;;;;;18.65;11.63;;;;;;;14.23;100.00;101121.34;5112673;28;20034;-84
2023/09/06 01:02:59;;;;;;;20.38;11.93;;;;;;;14.23;100.00;101120.56;5113239;28;20443;-86
2023/09/06 01:05:26;;;;;;;20.35;12.48;;;;;;;14.23;100.00;101124.22;5112648;28;20062;-85
2023/09/06 01:07:59;;;;;;;20.35;12.30;;;;;;;14.14;100.00;101112.03;5094795;28;20031;-84
2023/09/06 01:10:24;;;;;;;25.00;12.27;;;;;;;14.18;100.00;101118.41;5108387;28;20055;-84
2023/09/06 01:12:51;;;;;;;17.75;12.65;;;;;;;14.12;100.00;101132.69;5112147;28;20075;-84
2023/09/06 01:15:18;;;;;;;19.20;12.38;;;;;;;14.06;100.00;101116.63;5111559;28;20139;-84
2023/09/06 01:17:45;;;;;;;20.40;13.23;;;;;;;14.08;100.00;101117.72;5116023;28;20482;-85
2023/09/06 01:20:48;;;;;;;23.13;12.48;;;;;;;14.08;100.00;101125.56;5098151;28;20147;-83
2023/09/06 01:23:40;;;;;;;21.10;13.27;;;;;;;14.05;100.00;101118.69;5116586;27;20411;-83
2023/09/06 01:26:32;;;;;;;15.93;12.25;;;;;;;14.01;100.00;101115.25;5114696;28;20027;-84
2023/09/06 01:29:04;;;;;;;21.15;12.95;;;;;;;13.96;100.00;101119.63;5116203;28;20059;-85
2023/09/06 01:31:51;;;;;;;21.27;13.18;;;;;;;13.96;100.00;101115.94;5114730;28;20457;-86
2023/09/06 01:34:21;;;;;;;19.98;13.43;;;;;;;13.92;100.00;101110.41;5115910;28;20032;-84
2023/09/06 01:36:48;;;;;;;22.73;13.85;;;;;;;13.94;100.00;101118.50;5114953;28;20114;-85
2023/09/06 01:39:16;;;;;;;23.02;13.20;;;;;;;13.91;100.00;101126.06;5117154;28;20028;-84
2023/09/06 01:41:41;;;;;;;16.90;11.80;;;;;;;13.86;100.00;101120.22;5117138;28;20051;-84
2023/09/06 01:44:08;;;;;;;22.55;12.52;;;;;;;13.78;100.00;101114.09;5116865;28;20020;-83
2023/09/06 01:46:33;;;;;;;14.98;10.95;;;;;;;13.78;100.00;101127.66;5099074;28;20139;-84
2023/09/06 01:48:59;;;;;;;17.33;11.32;;;;;;;13.73;100.00;101128.34;5098634;28;20471;-83
2023/09/06 01:51:26;;;;;;;21.65;11.60;;;;;;;13.57;100.00;101108.72;5115611;28;20032;-84
2023/09/06 01:53:52;;;;;;;19.48;12.43;;;;;;;13.54;100.00;101117.03;5116761;27;20026;-84
2023/09/06 01:56:19;;;;;;;19.75;12.18;;;;;;;13.58;100.00;101130.41;5115371;28;20023;-84
2023/09/06 01:58:46;;;;;;;21.83;12.30;;;;;;;13.39;100.00;101110.44;5116689;27;20110;-84
2023/09/06 02:01:12;;;;;;;19.42;12.57;;;;;;;13.43;100.00;101125.41;5116843;28;20015;-82
2023/09/06 02:03:40;;;;;;;18.25;12.75;;;;;;;13.45;100.00;101128.56;5116455;28;20414;-83
2023/09/06 02:06:06;;;;;;;21.30;12.80;;;;;;;13.40;100.00;101128.47;5116617;28;20024;-83
2023/09/06 02:08:32;;;;;;;19.75;12.40;;;;;;;13.43;100.00;101131.16;5116604;28;20024;-84
2023/09/06 02:10:58;;;;;;;21.27;12.00;;;;;;;13.30;100.00;101113.41;5116908;27;20032;-84
2023/09/06 02:13:26;;;;;;;20.27;12.90;;;;;;;13.30;100.00;101122.00;5115091;28;20019;-83
2023/09/06 02:15:51;;;;;;;22.13;13.10;;;;;;;13.28;100.00;101118.84;5115616;28;20460;-83
2023/09/06 02:18:18;;;;;;;22.00;13.27;;;;;;;13.26;100.00;101109.13;5114929;28;20027;-84
2023/09/06 02:20:44;;;;;;;25.13;13.32;;;;;;;13.13;100.00;101112.28;5116893;27;20051;-84
2023/09/06 02:23:12;;;;;;;22.92;12.80;;;;;;;13.11;100.00;101121.38;5115259;28;20027;-83
2023/09/06 02:25:38;;;;;;;20.30;12.70;;;;;;;12.96;100.00;101108.28;5114792;28;20019;-84
2023/09/06 02:28:05;;;;;;;20.73;13.50;;;;;;;13.01;100.00;101136.28;5097428;28;20043;-84
2023/09/06 02:30:37;;;;;;;19.42;13.02;;;;;;;12.99;100.00;101124.53;5116438;28;20054;-83
2023/09/06 02:33:09;;;;;;;20.17;13.25;;;;;;;12.90;100.00;101113.13;5114968;28;20024;-84
2023/09/06 02:35:40;;;;;;;21.05;12.65;;;;;;;12.98;100.00;101131.53;5114886;28;20027;-85
2023/09/06 02:38:15;;;;;;;20.50;12.88;;;;;;;12.99;100.00;101139.66;5115892;28;20549;-81
2023/09/06 02:40:42;;;;;;;20.77;13.43;;;;;;;12.94;100.00;101128.88;5116121;28;20047;-83
2023/09/06 02:43:16;;;;;;;17.85;12.75;;;;;;;13.02;100.00;101137.88;5116417;28;20031;-84
2023/09/06 02:45:49;;;;;;;19.23;12.63;;;;;;;13.03;100.00;101136.59;5116107;28;20024;-84
2023/09/06 02:48:18;;;;;;;18.27;12.27;;;;;;;13.06;100.00;101141.34;5115945;28;20028;-84
2023/09/06 02:50:47;;;;;;;21.25;13.70;;;;;;;13.06;100.00;101145.00;5115610;28;20381;-84
2023/09/06 02:53:19;;;;;;;21.67;13.50;;;;;;;12.99;100.00;101131.06;5114491;28;20063;-86
2023/09/06 02:55:48;;;;;;;21.42;13.45;;;;;;;12.96;100.00;101143.50;5114648;28;20432;-84
2023/09/06 02:58:18;;;;;;;20.83;13.68;;;;;;;12.91;100.00;101151.97;5097417;28;20107;-84
2023/09/06 03:00:47;;;;;;;18.70;13.98;;;;;;;12.88;100.00;101150.09;5114356;28;20388;-84
2023/09/06 03:03:16;;;;;;;24.40;15.00;;;;;;;12.89;100.00;101158.22;5114074;28;20537;-83
2023/09/06 03:05:42;;;;;;;21.95;13.77;;;;;;;12.85;100.00;101142.47;5097470;28;20024;-85
2023/09/06 03:08:10;;;;;;;20.05;13.40;;;;;;;12.86;100.00;101153.44;5114340;28;20027;-85
2023/09/06 03:10:46;;;;;;;21.35;13.57;;;;;;;12.79;100.00;101144.44;5097437;28;20050;-85
2023/09/06 03:13:11;;;;;;;23.00;13.32;;;;;;;12.89;100.00;101163.97;5115417;28;20047;-85
2023/09/06 03:15:36;;;;;;;22.02;13.95;;;;;;;12.90;100.00;101159.03;5116005;28;20028;-84
2023/09/06 03:18:05;;;;;;;24.58;15.07;;;;;;;12.89;100.00;101155.34;5114951;28;20036;-83
2023/09/06 03:20:42;;;;;;;29.95;15.05;;;;;;;12.91;100.00;101164.25;5115236;28;20024;-84
2023/09/06 03:23:17;;;;;;;19.52;14.15;;;;;;;12.90;100.00;101174.13;5115176;28;20031;-85
2023/09/06 03:25:45;;;;;;;19.42;13.15;;;;;;;12.86;100.00;101169.88;5096632;28;20468;-84
2023/09/06 03:28:12;;;;;;;24.08;14.98;;;;;;;12.83;100.00;101165.91;5079721;28;20028;-85
2023/09/06 03:30:46;;;;;;;22.45;14.25;;;;;;;12.78;100.00;101169.44;5114876;28;20581;-83
2023/09/06 03:33:12;;;;;;;21.48;14.35;;;;;;;12.75;100.00;101163.91;5113757;28;20064;-84
2023/09/06 03:35:39;;;;;;;20.55;13.50;;;;;;;12.63;100.00;101160.78;5113705;28;20035;-84
2023/09/06 03:38:08;;;;;;;22.73;14.15;;;;;;;12.58;100.00;101161.44;5113070;28;20396;-84
2023/09/06 03:40:35;;;;;;;21.80;13.48;;;;;;;12.58;100.00;101167.16;5112873;28;20492;-84
2023/09/06 03:43:15;;;;;;;23.33;14.85;;;;;;;12.59;100.00;101173.69;5114687;28;20067;-84
2023/09/06 03:45:54;;;;;;;21.70;14.65;;;;;;;12.58;100.00;101174.97;5097393;28;20412;-84
2023/09/06 03:48:22;;;;;;;22.50;13.30;;;;;;;12.59;100.00;101180.22;5097718;28;20092;-85
2023/09/06 03:50:57;;;;;;;31.08;16.50;;;;;;;12.59;100.00;101188.03;5113380;28;20106;-86
2023/09/06 03:53:25;;;;;;;59.22;21.40;;;;;;;12.58;100.00;101181.50;5114452;28;20034;-85
2023/09/06 03:55:57;;;;;;;23.65;14.70;;;;;;;12.56;100.00;101180.38;5113411;28;20023;-86
2023/09/06 03:58:35;;;;;;;;;;;;;;;12.52;100.00;101185.50;5097746;28;20050;-86
2023/09/06 04:01:03;;;;;;;21.40;14.10;;;;;;;12.34;100.00;101163.44;5114585;27;19931;-85
2023/09/06 04:03:31;;;;;;;20.67;13.45;;;;;;;12.44;100.00;101173.63;5114305;28;20054;-85
2023/09/06 04:05:59;;;;;;;23.48;15.07;;;;;;;12.41;100.00;101177.44;5114352;28;20024;-84
2023/09/06 04:08:28;;;;;;;24.42;15.52;;;;;;;12.41;100.00;101179.50;5114471;28;20066;-83
2023/09/06 04:10:55;;;;;;;23.65;15.45;;;;;;;12.18;100.00;101150.28;5114644;28;20354;-84
2023/09/06 04:13:20;;;;;;;24.23;15.57;;;;;;;12.28;100.00;101183.34;5114136;28;20047;-85
2023/09/06 04:15:46;;;;;;;24.23;16.23;;;;;;;12.13;100.00;101165.25;5096028;28;20385;-84
2023/09/06 04:18:12;;;;;;;28.75;16.05;;;;;;;12.34;100.00;101185.56;5112641;28;20039;-84
2023/09/06 04:20:40;;;;;;;23.75;15.52;;;;;;;12.38;100.00;101181.28;5114171;28;20020;-85
2023/09/06 04:23:08;;;;;;;22.38;15.57;;;;;;;12.41;100.00;101180.31;5114214;28;20072;-84
2023/09/06 04:25:41;;;;;;;22.58;16.13;;;;;;;12.34;100.00;101160.56;5112822;28;20088;-86
2023/09/06 04:28:22;;;;;;;27.58;16.33;;;;;;;12.49;100.00;101184.44;5112887;28;20089;-84
2023/09/06 04:30:49;;;;;;;24.50;15.65;;;;;;;12.47;100.00;101186.16;5113977;28;20107;-84
2023/09/06 04:33:16;;;;;;;25.83;16.08;;;;;;;12.47;100.00;101192.69;5112496;28;20030;-85
2023/09/06 04:35:48;;;;;;;30.85;15.88;;;;;;;12.53;100.00;101192.84;5112860;28;20069;-84
2023/09/06 04:38:15;;;;;;;30.73;16.95;;;;;;;12.55;100.00;101193.16;5114137;28;20016;-84
2023/09/06 04:40:51;;;;;;;27.55;17.02;;;;;;;12.62;100.00;101187.84;5112722;28;20484;-85
2023/09/06 04:43:18;;;;;;;24.40;16.15;;;;;;;12.60;100.00;101184.66;5113861;28;20050;-84
2023/09/06 04:45:44;;;;;;;27.30;16.48;;;;;;;12.61;100.00;101196.94;5112890;28;20387;-85
2023/09/06 04:48:12;;;;;;;22.50;16.20;;;;;;;12.63;100.00;101194.38;5112098;28;20031;-86
2023/09/06 04:50:55;;;;;;;24.63;16.42;;;;;;;12.64;100.00;101193.13;5094607;28;20107;-86
2023/09/06 04:53:21;;;;;;;25.75;16.10;;;;;;;12.70;100.00;101205.50;5111555;28;20071;-84
2023/09/06 04:55:52;;;;;;;22.10;16.58;;;;;;;12.70;100.00;101200.53;5111715;28;20020;-85
2023/09/06 04:58:18;;;;;;;25.25;16.17;;;;;;;12.70;100.00;101209.16;5095464;28;20039;-85
2023/09/06 05:00:47;;;;;;;24.05;15.02;;;;;;;12.78;100.00;101214.53;5108124;28;20047;-85
2023/09/06 05:03:17;;;;;;;23.67;15.70;;;;;;;12.73;100.00;101198.00;5117965;28;20059;-87
2023/09/06 05:05:48;;;;;;;24.23;16.17;;;;;;;12.95;100.00;101222.22;5102165;28;20027;-86
2023/09/06 05:08:14;;;;;;;26.00;16.08;;;;;;;13.05;100.00;101218.03;5101583;28;20027;-85
2023/09/06 05:10:40;;;;;;;23.27;14.82;;;;;;;13.16;100.00;101211.75;5119486;28;20024;-77
2023/09/06 05:13:07;;;;;;;23.83;14.68;;;;;;;13.26;100.00;101221.09;5116355;28;20111;-73
2023/09/06 05:15:38;;;;;;;22.00;14.45;;;;;;;13.35;100.00;101215.28;5116236;28;20473;-78
2023/09/06 05:18:06;;;;;;;23.65;13.38;;;;;;;13.39;100.00;101210.94;5116181;28;20034;-73
2023/09/06 05:20:39;;;;;;;24.00;14.45;;;;;;;13.41;100.00;101199.75;5115972;28;20502;-80
2023/09/06 05:23:10;;;;;;;25.30;14.02;;;;;;;13.49;100.00;101212.44;5116410;28;20107;-75
2023/09/06 05:25:39;;;;;;;23.45;14.18;;;;;;;13.53;100.00;101207.34;5117331;28;20027;-74
2023/09/06 05:28:09;;;;;;;22.35;13.98;;;;;;;13.52;100.00;101199.22;5117093;28;20524;-74
2023/09/06 05:30:46;;;;;;;20.58;12.40;;;;;;;13.48;100.00;101184.25;5117509;28;20023;-76
2023/09/06 05:33:13;;;;;;;21.67;14.45;;;;;;;13.68;100.00;101206.59;5100724;28;20039;-74
2023/09/06 05:35:41;;;;;;;21.25;12.40;;;;;;;13.70;100.00;101190.44;5115762;28;20038;-74
2023/09/06 05:38:20;;;;;;;16.98;10.98;;;;;;;13.91;100.00;101205.72;5114841;28;20027;-75
2023/09/06 05:40:45;;;;;;;18.38;11.90;;;;;;;13.99;100.00;101201.94;5116592;28;20097;-73
2023/09/06 05:43:12;;;;;;;23.70;13.00;;;;;;;14.08;100.00;101206.03;5116748;28;20023;-75
2023/09/06 05:45:44;;;;;;;16.02;11.18;;;;;;;14.12;100.00;101213.16;5116585;28;20024;-74
2023/09/06 05:48:10;;;;;;;18.38;12.60;;;;;;;14.15;100.00;101212.16;5116125;28;20376;-74
2023/09/06 05:50:35;;;;;;;21.10;11.93;;;;;;;14.18;100.00;101207.50;5116794;27;20478;-74
2023/09/06 05:53:04;;;;;;;19.48;10.85;;;;;;;14.05;100.00;101181.94;5115225;28;20071;-76
2023/09/06 05:55:31;;;;;;;19.55;10.77;;;;;;;14.29;100.00;101207.69;5110439;28;20012;-76
2023/09/06 05:57:57;;;;;;;21.40;12.15;;;;;;;14.28;100.00;101206.88;5101190;28;20046;-73
2023/09/06 06:00:28;;;;;;;19.38;10.88;;;;;;;14.35;100.00;101205.69;5095864;28;20031;-75
2023/09/06 06:02:58;;;;;;;20.08;12.55;;;;;;;14.39;100.00;101212.84;5095546;28;20058;-72
2023/09/06 06:05:26;;;;;;;22.88;10.55;;;;;;;14.49;100.00;101218.47;5096381;28;20052;-78
2023/09/06 06:07:52;;;;;;;15.23;10.38;;;;;;;14.56;100.00;101215.19;5096234;28;20032;-73
2023/09/06 06:10:18;;;;;;;15.80;11.25;;;;;;;14.64;100.00;101204.88;5095919;28;20096;-73
2023/09/06 06:12:46;;;;;;;17.00;11.18;;;;;;;14.76;100.00;101212.41;5095105;28;20035;-74
2023/09/06 06:15:20;;;;;;;18.63;10.70;;;;;;;14.87;100.00;101218.34;5094047;28;20354;-73
2023/09/06 06:17:47;;;;;;;16.55;11.15;;;;;;;15.01;100.00;101214.63;5094695;28;20055;-73
2023/09/06 06:20:13;;;;;;;16.50;8.90;;;;;;;15.22;100.00;101209.63;5095738;28;20035;-74
2023/09/06 06:22:40;;;;;;;16.30;7.75;;;;;;;15.87;100.00;101218.84;5094305;28;20389;-73
2023/09/06 06:25:10;;;;;;;15.10;8.02;;;;;;;17.05;100.00;101219.31;5095673;28;20016;-74
2023/09/06 06:27:38;;;;;;;14.05;6.90;;;;;;;18.47;100.00;101195.59;5095722;28;20024;-74
2023/09/06 06:30:06;;;;;;;15.55;7.63;;;;;;;19.98;100.00;101187.22;5077691;28;20123;-75
2023/09/06 06:32:32;;;;;;;11.10;7.20;;;;;;;21.35;100.00;101190.66;5094573;28;20042;-75
2023/09/06 06:35:05;;;;;;;12.73;7.05;;;;;;;22.63;100.00;101189.59;5094191;28;20036;-74
2023/09/06 06:37:38;;;;;;;13.57;7.13;;;;;;;23.76;100.00;101172.22;5092985;28;20035;-74
2023/09/06 06:40:05;;;;;;;11.38;6.63;;;;;;;24.84;100.00;101164.75;5094052;28;20044;-75
2023/09/06 06:42:34;;;;;;;12.68;6.88;;;;;;;25.85;100.00;101168.50;5076209;28;20043;-76
2023/09/06 06:45:06;;;;;;;9.38;5.72;;;;;;;26.81;100.00;101169.88;5093011;28;20554;-74
2023/09/06 06:47:32;;;;;;;8.73;5.85;;;;;;;27.70;100.00;101161.41;5093838;28;20112;-75
2023/09/06 06:50:06;;;;;;;9.18;5.95;;;;;;;28.58;100.00;101167.22;5094253;28;20048;-74
2023/09/06 06:52:36;;;;;;;13.52;6.20;;;;;;;29.22;100.00;101166.25;5094023;28;20016;-74
2023/09/06 06:55:04;;;;;;;11.55;5.85;;;;;;;29.64;100.00;101140.41;5094167;28;20027;-74
2023/09/06 06:57:33;;;;;;;7.07;5.63;;;;;;;30.27;100.00;101157.44;5094072;28;20016;-75
2023/09/06 07:00:11;;;;;;;8.13;6.15;;;;;;;30.87;100.00;101161.56;5094004;28;20055;-75
2023/09/06 07:02:43;;;;;;;9.63;5.55;;;;;;;31.46;83.32;101162.47;5077281;28;20495;-75
2023/09/06 07:05:09;;;;;;;10.63;5.55;;;;;;;31.34;86.02;101156.41;5094540;28;20028;-74
2023/09/06 07:07:35;;;;;;;9.45;5.93;;;;;;;31.78;89.85;101153.16;5095173;28;20066;-74
2023/09/06 07:10:02;;;;;;;8.45;5.53;;;;;;;32.35;81.69;101149.28;5093462;28;20036;-74
2023/09/06 07:12:29;;;;;;;7.57;5.18;;;;;;;32.67;74.90;101154.63;5094671;28;20027;-73
2023/09/06 07:14:55;;;;;;;11.68;5.25;;;;;;;32.99;75.89;101155.34;5092746;28;20062;-74
2023/09/06 07:17:23;;;;;;;10.70;5.63;;;;;;;33.29;71.92;101148.63;5094602;28;20031;-74
2023/09/06 07:19:51;;;;;;;12.10;5.50;;;;;;;33.51;59.55;101149.38;5094809;28;20024;-74
2023/09/06 07:22:17;;;;;;;8.15;4.90;;;;;;;33.47;65.01;101155.78;5094800;28;20028;-75
2023/09/06 07:24:42;;;;;;;9.20;4.82;;;;;;;33.63;70.93;101158.31;5093444;28;20055;-74
2023/09/06 07:27:09;;;;;;;12.93;5.47;;;;;;;34.00;69.75;101152.69;5094261;28;20113;-75
2023/09/06 07:29:34;;;;;;;8.70;4.88;;;;;;;34.38;65.59;101152.25;5094370;28;20030;-75
2023/09/06 07:32:01;;;;;;;11.98;4.80;;;;;;;34.66;65.17;101144.44;5093223;28;20114;-76
2023/09/06 07:34:28;;;;;;;11.15;5.00;;;;;;;34.87;53.92;101152.41;5094496;28;20027;-75
2023/09/06 07:36:54;;;;;;;11.23;5.00;;;;;;;34.88;62.98;101148.03;5093288;28;20078;-75
2023/09/06 07:39:21;;;;;;;15.52;4.38;;;;;;;34.83;63.82;101149.19;5093179;28;20028;-75
2023/09/06 07:41:50;;;;;;;8.07;4.72;;;;;;;34.78;62.56;101143.00;5092700;28;20052;-75
2023/09/06 07:44:16;;;;;;;7.80;4.45;;;;;;;34.85;61.71;101149.31;5094093;28;20020;-75
2023/09/06 07:46:43;;;;;;;6.95;4.60;;;;;;;34.74;60.80;101141.97;5093901;28;20111;-75
2023/09/06 07:49:09;;;;;;;8.23;4.70;;;;;;;34.54;55.11;101135.50;5092855;28;20020;-75
2023/09/06 07:51:35;;;;;;;6.45;4.00;;;;;;;34.32;59.63;101128.09;5092741;28;20043;-74
2023/09/06 07:54:00;;;;;;;4.85;4.13;;;;;;;34.29;63.42;101139.09;5094021;28;20024;-73
2023/09/06 07:56:28;;;;;;;4.70;3.55;;;;;;;34.61;62.90;101136.69;5093809;28;20024;-75
2023/09/06 07:58:55;;;;;;;4.57;3.72;;;;;;;34.54;60.57;101126.59;5093809;28;20024;-75
2023/09/06 08:01:23;;;;;;;5.45;3.85;;;;;;;34.56;53.06;101131.88;5093955;28;20052;-75
2023/09/06 08:03:49;;;;;;;5.43;3.92;;;;;;;34.67;57.75;101131.13;5092887;28;20023;-75
2023/09/06 08:06:15;;;;;;;10.05;3.90;;;;;;;34.79;56.62;101120.00;5094023;28;20111;-74
2023/09/06 08:08:43;;;;;;;5.75;3.60;;;;;;;35.03;57.47;101126.69;5092536;28;20115;-74
2023/09/06 08:11:09;;;;;;;6.80;4.15;;;;;;;35.11;55.40;101130.94;5094045;28;20024;-74
2023/09/06 08:13:37;;;;;;;6.18;4.18;;;;;;;35.11;52.79;101136.88;5078059;28;20058;-76
2023/09/06 08:16:05;;;;;;;6.55;3.55;;;;;;;35.04;57.03;101137.16;5113938;28;20024;-77
2023/09/06 08:18:31;;;;;;;3.97;3.25;;;;;;;35.22;55.16;101138.28;5112774;28;20024;-76
2023/09/06 08:20:58;;;;;;;9.93;3.75;;;;;;;35.27;48.96;101139.31;5112600;28;20027;-75
2023/09/06 08:23:23;;;;;;;7.28;3.90;;;;;;;35.23;50.62;101142.81;5113727;28;20027;-75
2023/09/06 08:25:49;;;;;;;5.40;3.75;;;;;;;34.99;53.16;101135.34;5113361;28;20047;-76
2023/09/06 08:28:16;;;;;;;5.78;3.63;;;;;;;34.91;51.47;101135.59;5113660;28;20035;-74
2023/09/06 08:30:44;;;;;;;5.75;3.53;;;;;;;34.91;50.15;101135.59;5113739;28;20525;-76
2023/09/06 08:33:09;;;;;;;6.10;3.90;;;;;;;34.96;52.44;101134.44;5112846;28;20019;-76
2023/09/06 08:35:35;;;;;;;4.38;3.40;;;;;;;35.02;53.07;101139.97;5113638;28;20027;-75
2023/09/06 08:38:00;;;;;;;9.15;3.55;;;;;;;35.20;50.73;101141.16;5112209;28;20365;-76
2023/09/06 08:40:26;;;;;;;4.72;3.45;;;;;;;35.01;49.48;101136.22;5112183;28;20042;-75
2023/09/06 08:42:52;;;;;;;6.82;3.53;;;;;;;34.84;48.29;101145.59;5112220;28;20111;-75
2023/09/06 08:45:21;;;;;;;6.20;3.30;;;;;;;34.73;50.59;101135.25;5112378;28;20015;-76
2023/09/06 08:47:48;;;;;;;4.32;3.25;;;;;;;34.83;50.63;101138.09;5113751;28;20048;-76
2023/09/06 08:50:14;;;;;;;4.13;3.67;;;;;;;34.73;51.35;101144.16;5112309;28;20031;-76
2023/09/06 08:52:41;;;;;;;3.30;3.00;;;;;;;34.36;51.62;101140.28;5113633;28;20020;-77
2023/09/06 08:55:10;;;;;;;8.98;3.53;;;;;;;34.11;52.02;101131.16;5112231;28;20027;-78
2023/09/06 08:57:37;;;;;;;30.02;5.68;;;;;;;34.01;48.87;101142.38;5095213;28;20036;-76
2023/09/06 09:00:04;;;;;;;10.52;3.80;;;;;;;33.96;51.67;101143.53;5113716;28;20016;-77
2023/09/06 09:02:30;;;;;;;4.28;3.03;;;;;;;34.02;50.25;101146.91;5113428;28;20487;-76
2023/09/06 09:04:56;;;;;;;7.53;3.20;;;;;;;33.89;51.44;101140.13;5113653;28;20031;-79
2023/09/06 09:07:21;;;;;;;3.72;2.90;;;;;;;33.74;51.33;101143.56;5113894;28;20567;-79
2023/09/06 09:10:04;;;;;;;4.53;3.28;;;;;;;33.66;51.02;101146.00;5114003;28;20038;-78
2023/09/06 09:12:30;;;;;;;6.07;3.70;;;;;;;33.46;52.93;101123.84;5113153;28;20110;-81
2023/09/06 09:14:57;;;;;;;5.00;3.28;;;;;;;33.57;50.88;101137.94;5113366;28;20038;-78
2023/09/06 09:17:23;;;;;;;4.10;3.08;;;;;;;33.40;49.98;101126.38;5113371;28;20076;-78
2023/09/06 09:19:56;;;;;;;5.43;3.58;;;;;;;33.52;50.30;101142.81;5113672;28;20535;-77
2023/09/06 09:22:37;;;;;;;9.00;3.22;;;;;;;33.55;51.28;101145.91;5112419;28;20023;-77
2023/09/06 09:25:14;;;;;;;5.70;3.17;;;;;;;33.52;50.56;101139.09;5113111;28;20028;-77
2023/09/06 09:27:55;;;;;;;7.50;3.45;;;;;;;33.34;50.96;101147.50;5113298;28;20396;-77
2023/09/06 09:30:22;;;;;;;4.75;3.20;;;;;;;33.13;53.31;101147.47;5112233;28;20036;-79
2023/09/06 09:32:48;;;;;;;6.20;3.20;;;;;;;32.86;53.02;101150.00;5094898;28;20036;-77
2023/09/06 09:35:15;;;;;;;4.70;3.13;;;;;;;32.60;53.05;101151.81;5113226;28;20098;-77
2023/09/06 09:37:42;;;;;;;6.32;3.33;;;;;;;32.46;57.35;101160.44;5113716;28;20030;-78
2023/09/06 09:40:20;;;;;;;6.00;3.50;;;;;;;32.37;59.43;101154.56;5116791;28;20400;-78
2023/09/06 09:42:56;;;;;;;7.13;3.88;;;;;;;32.17;57.56;101168.63;5098813;28;20023;-77
2023/09/06 09:45:24;;;;;;;5.07;3.35;;;;;;;32.00;60.13;101174.72;5115219;28;20031;-77
2023/09/06 09:47:51;;;;;;;9.77;3.63;;;;;;;31.70;59.62;101159.22;5115557;28;20031;-77
2023/09/06 09:50:18;;;;;;;6.25;3.13;;;;;;;31.61;61.49;101165.09;5117157;27;20046;-76
2023/09/06 09:52:44;;;;;;;4.05;2.88;;;;;;;31.40;61.29;101163.53;5098688;28;20396;-78
2023/09/06 09:55:13;;;;;;;4.53;3.58;;;;;;;31.31;62.62;101161.38;5098439;28;20037;-77
2023/09/06 09:57:45;;;;;;;4.82;3.38;;;;;;;31.24;66.29;101153.44;5115126;28;20122;-78
2023/09/06 10:00:15;;;;;;;4.53;3.78;;;;;;;31.08;66.34;101160.22;5116815;27;20116;-77
2023/09/06 10:02:45;;;;;;;5.15;3.30;;;;;;;30.98;66.03;101161.00;5098982;28;20035;-78
2023/09/06 10:05:16;;;;;;;5.03;3.63;;;;;;;30.86;66.65;101153.34;5116561;28;20080;-77
2023/09/06 10:07:42;;;;;;;19.17;4.70;;;;;;;30.74;69.77;101153.16;5116576;28;20077;-76
2023/09/06 10:10:11;;;;;;;7.60;3.53;;;;;;;30.66;67.67;101161.38;5115053;28;20027;-76
2023/09/06 10:12:43;;;;;;;4.75;3.33;;;;;;;30.53;70.53;101155.84;5116558;28;20027;-78
2023/09/06 10:15:13;;;;;;;11.88;3.92;;;;;;;30.49;72.70;101165.16;5114824;28;20555;-77
2023/09/06 10:17:39;;;;;;;5.25;3.25;;;;;;;30.34;71.13;101156.53;5114731;28;20023;-78
2023/09/06 10:20:12;;;;;;;6.47;3.92;;;;;;;30.04;71.23;101169.53;5115060;28;20042;-80
2023/09/06 10:22:43;;;;;;;3.88;2.70;;;;;;;29.81;74.49;101163.19;5114778;28;20035;-77
2023/09/06 10:25:10;;;;;;;3.67;3.15;;;;;;;29.62;74.47;101157.16;5116169;28;20384;-77
2023/09/06 10:27:47;;;;;;;7.50;3.67;;;;;;;29.44;75.70;101159.31;5114539;28;20032;-76
2023/09/06 10:30:17;;;;;;;9.30;3.42;;;;;;;29.27;78.60;101163.03;5116005;28;20333;-78
2023/09/06 10:32:44;;;;;;;6.68;3.83;;;;;;;29.26;81.00;101161.47;5116087;28;20038;-76
2023/09/06 10:35:19;;;;;;;7.85;3.58;;;;;;;29.28;79.61;101158.69;5114488;28;20031;-76
2023/09/06 10:38:18;;;;;;;10.15;4.35;;;;;;;29.27;77.80;101159.31;5115926;28;20035;-76
2023/09/06 10:40:53;;;;;;;8.13;3.65;;;;;;;29.11;73.68;101163.81;5115637;28;20044;-76
2023/09/06 10:43:23;;;;;;;6.03;3.50;;;;;;;28.98;78.82;101167.06;5115807;28;20428;-76
2023/09/06 10:46:24;;;;;;;6.68;3.97;;;;;;;28.86;77.68;101161.66;5114264;28;20059;-76
2023/09/06 10:49:12;;;;;;;6.00;3.58;;;;;;;28.65;81.78;101155.38;5116085;28;20038;-78
2023/09/06 10:51:58;;;;;;;10.70;4.07;;;;;;;28.56;81.64;101158.97;5111746;28;20035;-78
2023/09/06 10:54:24;;;;;;;7.10;3.35;;;;;;;28.39;81.25;101159.66;5114151;28;20023;-78
2023/09/06 10:56:57;;;;;;;6.45;4.25;;;;;;;28.06;81.27;101136.78;5115554;27;20027;-77
2023/09/06 10:59:22;;;;;;;6.10;3.33;;;;;;;28.08;84.11;101157.53;5115736;28;20070;-80
2023/09/06 11:02:09;;;;;;;5.38;3.50;;;;;;;28.01;84.54;101147.38;5114165;28;20448;-77
2023/09/06 11:04:36;;;;;;;4.50;3.60;;;;;;;27.98;86.32;101157.41;5115141;28;20083;-78
2023/09/06 11:07:10;;;;;;;5.65;3.80;;;;;;;27.89;89.22;101149.22;5114301;28;20057;-77
2023/09/06 11:09:43;;;;;;;5.07;3.47;;;;;;;27.79;94.72;101142.41;5115480;27;20024;-79
2023/09/06 11:12:11;;;;;;;5.40;3.20;;;;;;;27.77;92.25;101142.19;5115306;28;20106;-77
2023/09/06 11:14:37;;;;;;;6.32;3.50;;;;;;;27.74;92.43;101143.41;5115269;28;20099;-78
2023/09/06 11:17:02;;;;;;;5.75;3.22;;;;;;;27.70;89.23;101143.78;5114919;28;20019;-77
2023/09/06 11:19:29;;;;;;;13.45;3.95;;;;;;;27.63;87.02;101147.56;5113755;28;20034;-78
2023/09/06 11:22:06;;;;;;;7.72;3.75;;;;;;;27.43;84.64;101131.00;5115295;28;20457;-76